Time,TemperatureF,DewpointF,PressureIn,WindDirection,WindDirectionDegrees,WindSpeedMPH,WindSpeedGustMPH,Humidity,HourlyPrecipIn,Conditions,Clouds,dailyrainin,SoftwareType,DateUTC
2013-01-21 00:02:00,33.0,-4.0,30.22,SSW,198,5.0,10.0,20,0.00,,,0.00,,2013-01-21 08:02:00,
2013-01-21 00:22:00,32.0,-4.0,30.22,South,181,8.0,10.0,20,0.00,,,0.00,,2013-01-21 08:22:00,
2013-01-21 00:32:00,32.0,-4.0,30.22,South,185,6.0,10.0,20,0.00,,,0.00,,2013-01-21 08:32:00,
2013-01-21 00:53:00,31.0,-4.0,30.21,SSW,194,10.0,11.0,21,0.00,,,0.00,,2013-01-21 08:53:00,
2013-01-21 01:02:00,31.0,-4.0,30.21,South,189,9.0,11.0,21,0.00,,,0.00,,2013-01-21 09:02:00,
2013-01-21 01:22:00,31.0,-3.0,30.21,SSW,208,5.0,6.0,22,0.00,,,0.00,,2013-01-21 09:22:00,
2013-01-21 01:32:00,31.0,-3.0,30.21,SW,231,5.0,6.0,22,0.00,,,0.00,,2013-01-21 09:32:00,
2013-01-21 01:53:00,32.0,-3.0,30.21,WSW,238,3.0,5.0,21,0.00,,,0.00,,2013-01-21 09:53:00,
2013-01-21 02:02:00,32.0,-3.0,30.21,South,184,4.0,7.0,21,0.00,,,0.00,,2013-01-21 10:02:00,
2013-01-21 02:22:00,37.0,1.0,30.23,West,269,3.0,14.0,21,0.00,,,0.00,,2013-01-21 10:22:00,
2013-01-21 02:32:00,40.0,1.0,30.23,WNW,299,4.0,6.0,19,0.00,,,0.00,,2013-01-21 10:32:00,
2013-01-21 02:42:00,40.0,1.0,30.23,WNW,299,4.0,6.0,19,0.00,,,0.00,,2013-01-21 10:42:00,
2013-01-21 02:52:00,42.0,2.0,30.21,WNW,291,4.0,6.0,18,0.00,,,0.00,,2013-01-21 10:52:00,
2013-01-21 03:02:00,42.0,-1.0,30.21,WNW,291,0.0,5.0,16,0.00,,,0.00,,2013-01-21 11:02:00,
2013-01-21 03:12:00,42.0,-1.0,30.21,WNW,291,0.0,5.0,16,0.00,,,0.00,,2013-01-21 11:12:00,
2013-01-21 03:22:00,34.0,-5.0,30.22,South,184,6.0,9.0,18,0.00,,,0.00,,2013-01-21 11:22:00,
2013-01-21 03:32:00,31.0,-4.0,30.22,SSW,212,4.0,8.0,21,0.00,,,0.00,,2013-01-21 11:32:00,
2013-01-21 04:02:00,32.0,-2.0,30.21,West,276,1.0,4.0,23,0.00,,,0.00,,2013-01-21 12:02:00,
2013-01-21 04:22:00,33.0,1.0,30.20,West,272,3.0,4.0,25,0.00,,,0.00,,2013-01-21 12:22:00,
2013-01-21 04:32:00,33.0,1.0,30.20,West,273,2.0,4.0,25,0.00,,,0.00,,2013-01-21 12:32:00,
2013-01-21 04:53:00,35.0,-1.0,30.20,SSW,206,4.0,6.0,21,0.00,,,0.00,,2013-01-21 12:53:00,
2013-01-21 05:02:00,34.0,1.0,30.20,West,266,4.0,6.0,24,0.00,,,0.00,,2013-01-21 13:02:00,
2013-01-21 05:12:00,34.0,1.0,30.20,West,266,4.0,6.0,24,0.00,,,0.00,,2013-01-21 13:12:00,
2013-01-21 05:22:00,37.0,2.0,30.20,WSW,255,6.0,10.0,22,0.00,,,0.00,,2013-01-21 13:22:00,
2013-01-21 05:32:00,39.0,2.0,30.20,West,264,4.0,7.0,21,0.00,,,0.00,,2013-01-21 13:32:00,
2013-01-21 05:42:00,39.0,2.0,30.20,West,264,4.0,7.0,21,0.00,,,0.00,,2013-01-21 13:42:00,
2013-01-21 05:53:00,36.0,-2.0,30.24,SSW,212,6.0,6.0,19,0.00,,,0.00,,2013-01-21 13:53:00,
2013-01-21 06:02:00,33.0,-3.0,30.24,SSW,198,8.0,9.0,21,0.00,,,0.00,,2013-01-21 14:02:00,
2013-01-21 06:12:00,33.0,-3.0,30.24,SSW,198,8.0,9.0,21,0.00,,,0.00,,2013-01-21 14:12:00,
2013-01-21 06:22:00,29.0,-2.0,30.23,West,271,6.0,8.0,26,0.00,,,0.00,,2013-01-21 14:22:00,
2013-01-21 06:32:00,32.0,1.0,30.23,West,271,9.0,12.0,26,0.00,,,0.00,,2013-01-21 14:32:00,
2013-01-21 06:53:00,37.0,2.0,30.24,WSW,241,4.0,10.0,22,0.00,,,0.00,,2013-01-21 14:53:00,
2013-01-21 07:02:00,36.0,0.0,30.24,South,181,7.0,11.0,21,0.00,,,0.00,,2013-01-21 15:02:00,
2013-01-21 07:12:00,36.0,0.0,30.24,South,181,7.0,11.0,21,0.00,,,0.00,,2013-01-21 15:12:00,
2013-01-21 07:22:00,32.0,-2.0,30.24,South,191,7.0,8.0,23,0.00,,,0.00,,2013-01-21 15:22:00,
2013-01-21 07:32:00,31.0,-1.0,30.24,WSW,240,4.0,8.0,25,0.00,,,0.00,,2013-01-21 15:32:00,
2013-01-21 07:53:00,32.0,1.0,30.24,WSW,258,2.0,6.0,26,0.00,,,0.00,,2013-01-21 15:53:00,
2013-01-21 08:02:00,35.0,1.0,30.24,WSW,258,2.0,4.0,23,0.00,,,0.00,,2013-01-21 16:02:00,
2013-01-21 08:12:00,35.0,1.0,30.24,WSW,258,2.0,4.0,23,0.00,,,0.00,,2013-01-21 16:12:00,
2013-01-21 08:23:00,37.0,2.0,30.25,West,265,4.0,6.0,22,0.00,,,0.00,,2013-01-21 16:23:00,
2013-01-21 08:32:00,39.0,2.0,30.25,WNW,303,7.0,10.0,21,0.00,,,0.00,,2013-01-21 16:32:00,
2013-01-21 08:43:00,39.0,2.0,30.25,WNW,303,7.0,10.0,21,0.00,,,0.00,,2013-01-21 16:43:00,
2013-01-21 08:53:00,46.0,4.0,30.26,NW,312,10.0,14.0,17,0.00,,,0.00,,2013-01-21 16:53:00,
2013-01-21 09:02:00,48.0,4.0,30.26,NW,326,6.0,12.0,16,0.00,,,0.00,,2013-01-21 17:02:00,
2013-01-21 09:12:00,48.0,4.0,30.26,NW,326,6.0,12.0,16,0.00,,,0.00,,2013-01-21 17:12:00,
2013-01-21 09:22:00,50.0,4.0,30.26,NNW,338,5.0,7.0,15,0.00,,,0.00,,2013-01-21 17:22:00,
2013-01-21 09:32:00,50.0,4.0,30.26,NNW,340,5.0,11.0,15,0.00,,,0.00,,2013-01-21 17:32:00,
2013-01-21 09:42:00,50.0,4.0,30.26,NNW,340,5.0,11.0,15,0.00,,,0.00,,2013-01-21 17:42:00,
2013-01-21 09:53:00,50.0,3.0,30.27,North,349,2.0,5.0,14,0.00,,,0.00,,2013-01-21 17:53:00,
2013-01-21 10:02:00,50.0,3.0,30.27,NNW,336,3.0,5.0,14,0.00,,,0.00,,2013-01-21 18:02:00,
2013-01-21 10:11:00,50.0,3.0,30.27,NNW,336,3.0,5.0,14,0.00,,,0.00,,2013-01-21 18:11:00,
2013-01-21 10:22:00,51.0,2.0,30.27,NNW,338,3.0,5.0,13,0.00,,,0.00,,2013-01-21 18:22:00,
2013-01-21 10:33:00,52.0,3.0,30.27,NNW,339,2.0,5.0,13,0.00,,,0.00,,2013-01-21 18:33:00,
2013-01-21 10:42:00,52.0,3.0,30.27,NNW,339,2.0,5.0,13,0.00,,,0.00,,2013-01-21 18:42:00,
2013-01-21 10:52:00,54.0,3.0,30.29,NNW,337,3.0,7.0,12,0.00,,,0.00,,2013-01-21 18:52:00,
2013-01-21 11:02:00,55.0,3.0,30.29,NW,317,3.0,6.0,12,0.00,,,0.00,,2013-01-21 19:02:00,
2013-01-21 11:12:00,55.0,3.0,30.29,NW,317,3.0,6.0,12,0.00,,,0.00,,2013-01-21 19:12:00,
2013-01-21 11:22:00,57.0,3.0,30.28,NNW,347,3.0,6.0,11,0.00,,,0.00,,2013-01-21 19:22:00,
2013-01-21 11:32:00,58.0,4.0,30.28,NNW,327,3.0,7.0,11,0.00,,,0.00,,2013-01-21 19:32:00,
2013-01-21 11:42:00,58.0,4.0,30.28,NNW,327,3.0,7.0,11,0.00,,,0.00,,2013-01-21 19:42:00,
2013-01-21 11:53:00,60.0,3.0,30.26,NW,325,1.0,4.0,10,0.00,,,0.00,,2013-01-21 19:53:00,
2013-01-21 12:02:00,61.0,4.0,30.26,NW,326,2.0,3.0,10,0.00,,,0.00,,2013-01-21 20:02:00,
2013-01-21 12:12:00,61.0,4.0,30.26,NW,326,2.0,3.0,10,0.00,,,0.00,,2013-01-21 20:12:00,
2013-01-21 12:22:00,63.0,3.0,30.22,NE,38,0.0,3.0,9,0.00,,,0.00,,2013-01-21 20:22:00,
2013-01-21 12:32:00,64.0,4.0,30.22,ENE,58,3.0,5.0,9,0.00,,,0.00,,2013-01-21 20:32:00,
2013-01-21 12:42:00,64.0,4.0,30.22,ENE,58,3.0,5.0,9,0.00,,,0.00,,2013-01-21 20:42:00,
2013-01-21 12:53:00,64.0,2.0,30.21,ENE,75,3.0,6.0,8,0.00,,,0.00,,2013-01-21 20:53:00,
2013-01-21 13:02:00,65.0,2.0,30.21,ENE,70,4.0,9.0,8,0.00,,,0.00,,2013-01-21 21:02:00,
2013-01-21 13:12:00,65.0,2.0,30.21,ENE,70,4.0,9.0,8,0.00,,,0.00,,2013-01-21 21:12:00,
2013-01-21 13:22:00,65.0,2.0,30.19,East,79,4.0,10.0,8,0.00,,,0.00,,2013-01-21 21:22:00,
2013-01-21 13:32:00,65.0,2.0,30.19,East,88,2.0,8.0,8,0.00,,,0.00,,2013-01-21 21:32:00,
2013-01-21 13:42:00,65.0,2.0,30.19,East,88,2.0,8.0,8,0.00,,,0.00,,2013-01-21 21:42:00,
2013-01-21 13:53:00,67.0,1.0,30.19,East,96,5.0,10.0,7,0.00,,,0.00,,2013-01-21 21:53:00,
2013-01-21 14:02:00,67.0,1.0,30.19,ESE,112,5.0,12.0,7,0.00,,,0.00,,2013-01-21 22:02:00,
2013-01-21 14:11:00,67.0,1.0,30.19,ESE,112,5.0,12.0,7,0.00,,,0.00,,2013-01-21 22:11:00,
2013-01-21 14:22:00,67.0,1.0,30.18,East,93,7.0,13.0,7,0.00,,,0.00,,2013-01-21 22:22:00,
2013-01-21 14:32:00,66.0,0.0,30.18,East,83,7.0,13.0,7,0.00,,,0.00,,2013-01-21 22:32:00,
2013-01-21 14:42:00,66.0,0.0,30.18,East,83,7.0,13.0,7,0.00,,,0.00,,2013-01-21 22:42:00,
2013-01-21 14:52:00,67.0,1.0,30.18,East,84,8.0,11.0,7,0.00,,,0.00,,2013-01-21 22:52:00,
2013-01-21 15:02:00,66.0,0.0,30.18,East,79,7.0,10.0,7,0.00,,,0.00,,2013-01-21 23:02:00,
2013-01-21 15:12:00,66.0,0.0,30.18,East,79,7.0,10.0,7,0.00,,,0.00,,2013-01-21 23:12:00,
2013-01-21 15:22:00,67.0,1.0,30.18,ENE,74,7.0,11.0,7,0.00,,,0.00,,2013-01-21 23:22:00,
2013-01-21 15:32:00,66.0,0.0,30.18,ENE,73,7.0,11.0,7,0.00,,,0.00,,2013-01-21 23:32:00,
2013-01-21 15:42:00,66.0,0.0,30.18,ENE,73,7.0,11.0,7,0.00,,,0.00,,2013-01-21 23:42:00,
2013-01-21 15:53:00,66.0,3.0,30.19,NE,47,5.0,9.0,8,0.00,,,0.00,,2013-01-21 23:53:00,
2013-01-21 16:02:00,66.0,3.0,30.19,ENE,63,7.0,11.0,8,0.00,,,0.00,,2013-01-22 00:02:00,
2013-01-21 16:11:00,66.0,3.0,30.19,ENE,63,7.0,11.0,8,0.00,,,0.00,,2013-01-22 00:11:00,
2013-01-21 16:22:00,65.0,2.0,30.16,ENE,57,5.0,11.0,8,0.00,,,0.00,,2013-01-22 00:22:00,
2013-01-21 16:32:00,65.0,2.0,30.16,ENE,66,6.0,11.0,8,0.00,,,0.00,,2013-01-22 00:32:00,
2013-01-21 16:42:00,65.0,2.0,30.16,ENE,66,6.0,11.0,8,0.00,,,0.00,,2013-01-22 00:42:00,
2013-01-21 16:53:00,64.0,2.0,30.18,NE,56,5.0,8.0,8,0.00,,,0.00,,2013-01-22 00:53:00,
2013-01-21 17:02:00,63.0,1.0,30.18,NE,53,3.0,7.0,8,0.00,,,0.00,,2013-01-22 01:02:00,
2013-01-21 17:12:00,63.0,1.0,30.18,NE,53,3.0,7.0,8,0.00,,,0.00,,2013-01-22 01:12:00,
2013-01-21 17:22:00,62.0,0.0,30.18,NE,53,3.0,4.0,8,0.00,,,0.00,,2013-01-22 01:22:00,
2013-01-21 17:32:00,61.0,2.0,30.18,NNE,13,3.0,4.0,9,0.00,,,0.00,,2013-01-22 01:32:00,
2013-01-21 17:42:00,61.0,2.0,30.18,NNE,13,3.0,4.0,9,0.00,,,0.00,,2013-01-22 01:42:00,
2013-01-21 17:52:00,58.0,2.0,30.18,NW,311,5.0,5.0,10,0.00,,,0.00,,2013-01-22 01:52:00,
2013-01-21 18:02:00,57.0,1.0,30.18,West,280,3.0,6.0,10,0.00,,,0.00,,2013-01-22 02:02:00,
2013-01-21 18:12:00,57.0,1.0,30.18,West,280,3.0,6.0,10,0.00,,,0.00,,2013-01-22 02:12:00,
2013-01-21 18:22:00,54.0,1.0,30.17,West,279,3.0,4.0,11,0.00,,,0.00,,2013-01-22 02:22:00,
2013-01-21 18:32:00,53.0,-2.0,30.17,SW,226,4.0,5.0,10,0.00,,,0.00,,2013-01-22 02:32:00,
2013-01-21 18:42:00,53.0,-2.0,30.17,SW,226,4.0,5.0,10,0.00,,,0.00,,2013-01-22 02:42:00,
2013-01-21 18:53:00,48.0,-4.0,30.19,SSW,195,7.0,7.0,11,0.00,,,0.00,,2013-01-22 02:53:00,
2013-01-21 19:02:00,46.0,-4.0,30.19,South,191,8.0,10.0,12,0.00,,,0.00,,2013-01-22 03:02:00,
2013-01-21 19:22:00,43.0,-4.0,30.18,SSW,193,7.0,9.0,13,0.00,,,0.00,,2013-01-22 03:22:00,
2013-01-21 19:32:00,42.0,-4.0,30.18,South,183,7.0,9.0,14,0.00,,,0.00,,2013-01-22 03:32:00,
2013-01-21 19:52:00,41.0,-3.0,30.20,SSW,199,6.0,9.0,15,0.00,,,0.00,,2013-01-22 03:52:00,
2013-01-21 20:02:00,41.0,-3.0,30.20,SSW,197,6.0,10.0,15,0.00,,,0.00,,2013-01-22 04:02:00,
2013-01-21 20:22:00,41.0,-2.0,30.20,South,183,7.0,8.0,16,0.00,,,0.00,,2013-01-22 04:22:00,
2013-01-21 20:32:00,40.0,-3.0,30.20,South,191,6.0,8.0,16,0.00,,,0.00,,2013-01-22 04:32:00,
2013-01-21 20:42:00,40.0,-3.0,30.20,South,191,6.0,8.0,16,0.00,,,0.00,,2013-01-22 04:42:00,
2013-01-21 20:52:00,40.0,-3.0,30.21,South,190,7.0,9.0,16,0.00,,,0.00,,2013-01-22 04:52:00,
2013-01-21 21:03:00,40.0,-3.0,30.21,SSW,195,5.0,10.0,16,0.00,,,0.00,,2013-01-22 05:03:00,
2013-01-21 21:12:00,40.0,-3.0,30.21,SSW,195,5.0,10.0,16,0.00,,,0.00,,2013-01-22 05:12:00,
2013-01-21 21:22:00,40.0,-1.0,30.22,SSW,193,7.0,10.0,17,0.00,,,0.00,,2013-01-22 05:22:00,
2013-01-21 21:32:00,40.0,-1.0,30.22,SSW,193,7.0,10.0,17,0.00,,,0.00,,2013-01-22 05:32:00,
2013-01-21 21:42:00,40.0,-1.0,30.22,South,186,7.0,11.0,17,0.00,,,0.00,,2013-01-22 05:42:00,
2013-01-21 21:52:00,41.0,0.0,30.21,SSW,203,7.0,10.0,17,0.00,,,0.00,,2013-01-22 05:52:00,
2013-01-21 22:02:00,42.0,-1.0,30.21,South,179,6.0,10.0,16,0.00,,,0.00,,2013-01-22 06:02:00,
2013-01-21 22:11:00,42.0,-1.0,30.21,South,179,6.0,10.0,16,0.00,,,0.00,,2013-01-22 06:11:00,
2013-01-21 22:22:00,41.0,0.0,30.22,SSW,193,6.0,9.0,17,0.00,,,0.00,,2013-01-22 06:22:00,
2013-01-21 22:32:00,42.0,-1.0,30.22,SSW,198,6.0,9.0,16,0.00,,,0.00,,2013-01-22 06:32:00,
2013-01-21 22:42:00,42.0,-1.0,30.22,SSW,198,6.0,9.0,16,0.00,,,0.00,,2013-01-22 06:42:00,
2013-01-21 22:52:00,42.0,-1.0,30.24,SSW,205,8.0,9.0,16,0.00,,,0.00,,2013-01-22 06:52:00,
2013-01-21 23:02:00,43.0,0.0,30.24,SW,217,7.0,10.0,16,0.00,,,0.00,,2013-01-22 07:02:00,
2013-01-21 23:11:00,43.0,0.0,30.24,SW,217,7.0,10.0,16,0.00,,,0.00,,2013-01-22 07:11:00,
2013-01-21 23:22:00,44.0,-1.0,30.23,SSW,198,5.0,7.0,15,0.00,,,0.00,,2013-01-22 07:22:00,
2013-01-21 23:32:00,43.0,0.0,30.23,SSW,198,5.0,6.0,16,0.00,,,0.00,,2013-01-22 07:32:00,
2013-01-21 23:42:00,43.0,0.0,30.23,SSW,198,5.0,6.0,16,0.00,,,0.00,,2013-01-22 07:42:00,
2013-01-21 23:52:00,41.0,0.0,30.22,SW,219,3.0,7.0,17,0.00,,,0.00,,2013-01-22 07:52:00,